createdAt,value
2024-03-02T00:00:53.331Z,83.44
2024-03-02T00:03:21.813Z,84.16
2024-03-02T00:05:53.627Z,84.73
2024-03-02T00:08:27.436Z,83.73
2024-03-02T00:10:59.928Z,84.43
2024-03-02T00:13:29.515Z,84.38
2024-03-02T00:15:58.999Z,84.68
2024-03-02T00:18:32.503Z,84.74
2024-03-02T00:21:01.152Z,84.82
2024-03-02T00:23:32.056Z,84.03
2024-03-02T00:26:01.438Z,83.65
2024-03-02T00:28:35.555Z,83.11
2024-03-02T00:31:08.769Z,83.29
2024-03-02T00:33:38.469Z,83.78
2024-03-02T00:36:08.077Z,83.71
2024-03-02T00:38:36.738Z,83.55
2024-03-02T00:41:09.171Z,83.57
2024-03-02T00:44:05.134Z,84.23
2024-03-02T00:46:36.093Z,84.43
2024-03-02T00:49:05.921Z,84.54
2024-03-02T00:51:37.033Z,84.31
2024-03-02T00:54:06.893Z,84.20
2024-03-02T00:56:36.738Z,83.97
2024-03-02T00:59:06.241Z,84.16
2024-03-02T01:01:34.250Z,83.39
2024-03-02T01:04:02.360Z,83.60
2024-03-02T01:06:30.431Z,83.73
2024-03-02T01:08:58.595Z,83.63
2024-03-02T01:11:26.813Z,83.67
2024-03-02T01:13:54.928Z,83.04
2024-03-02T01:16:24.493Z,82.26
2024-03-02T01:18:52.766Z,82.52
2024-03-02T01:21:20.951Z,83.08
2024-03-02T01:23:49.247Z,83.38
2024-03-02T01:26:17.343Z,83.23
2024-03-02T01:28:45.382Z,83.66
2024-03-02T01:31:13.498Z,83.10
2024-03-02T01:33:42.992Z,83.40
2024-03-02T01:36:11.129Z,83.22
2024-03-02T01:38:39.235Z,82.97
2024-03-02T01:41:07.399Z,83.30
2024-03-02T01:43:37.046Z,83.62
2024-03-02T01:46:06.759Z,83.53
2024-03-02T01:48:35.401Z,83.75
2024-03-02T01:51:06.377Z,84.12
2024-03-02T01:53:34.694Z,83.86
2024-03-02T01:56:02.769Z,83.89
2024-03-02T01:58:30.906Z,84.32
2024-03-02T02:00:59.038Z,84.07
2024-03-02T02:03:27.222Z,83.98
2024-03-02T02:05:55.450Z,84.47
2024-03-02T02:08:24.891Z,84.17
2024-03-02T02:10:53.596Z,83.73
2024-03-02T02:13:21.740Z,83.55
2024-03-02T02:15:49.957Z,83.23
2024-03-02T02:18:18.074Z,82.22
2024-03-02T02:20:46.181Z,81.89
2024-03-02T02:23:15.542Z,82.20
2024-03-02T02:25:43.710Z,82.35
2024-03-02T02:28:11.783Z,82.86
2024-03-02T02:30:39.867Z,83.18
2024-03-02T02:33:08.020Z,83.43
2024-03-02T02:35:36.140Z,83.44
2024-03-02T02:38:05.386Z,83.61
2024-03-02T02:40:34.871Z,83.08
2024-03-02T02:43:02.985Z,82.94
2024-03-02T02:45:31.793Z,83.56
2024-03-02T02:47:59.884Z,83.62
2024-03-02T02:50:27.897Z,83.91
2024-03-02T02:52:55.970Z,83.76
2024-03-02T02:55:24.017Z,83.81
2024-03-02T02:57:53.414Z,83.91
2024-03-02T03:00:23.651Z,83.45
2024-03-02T03:02:52.114Z,83.41
2024-03-02T03:05:20.857Z,83.55
2024-03-02T03:07:51.185Z,83.65
2024-03-02T03:10:22.080Z,82.79
2024-03-02T03:12:50.322Z,83.48
2024-03-02T03:15:20.032Z,82.75
2024-03-02T03:17:48.700Z,82.72
2024-03-02T03:20:17.214Z,83.15
2024-03-02T03:22:45.567Z,82.58
2024-03-02T03:25:13.784Z,82.08
2024-03-02T03:27:42.819Z,82.04
2024-03-02T03:30:12.177Z,82.36
2024-03-02T03:32:41.630Z,82.74
2024-03-02T03:35:10.335Z,83.12
2024-03-02T03:37:38.368Z,84.48
2024-03-02T03:40:11.567Z,83.66
2024-03-02T03:42:40.211Z,83.60
2024-03-02T03:45:09.392Z,83.02
2024-03-02T03:47:37.552Z,82.57
2024-03-02T03:50:08.756Z,82.88
2024-03-02T03:52:37.084Z,82.93
2024-03-02T03:55:06.637Z,82.20
2024-03-02T03:57:35.138Z,82.10
2024-03-02T04:00:03.391Z,81.47
2024-03-02T04:02:40.265Z,81.18
2024-03-02T04:05:12.608Z,81.37
2024-03-02T04:07:42.328Z,82.46
2024-03-02T04:10:11.566Z,82.18
2024-03-02T04:12:39.830Z,81.50
2024-03-02T04:15:08.790Z,80.79
2024-03-02T04:17:37.219Z,80.54
2024-03-02T04:20:06.919Z,80.91
2024-03-02T04:22:37.420Z,80.88
2024-03-02T04:25:08.396Z,81.03
2024-03-02T04:27:36.717Z,81.09
2024-03-02T04:30:06.954Z,80.72
2024-03-02T04:32:35.206Z,79.86
2024-03-02T04:35:03.253Z,79.59
2024-03-02T04:37:32.232Z,79.08
2024-03-02T04:40:01.734Z,78.42
2024-03-02T04:42:29.963Z,79.08
2024-03-02T04:44:58.063Z,79.68
2024-03-02T04:47:26.064Z,79.80
2024-03-02T04:49:54.087Z,79.63
2024-03-02T04:52:22.167Z,80.13
2024-03-02T04:55:07.661Z,80.36
2024-03-02T04:57:37.071Z,80.16
2024-03-02T05:00:08.245Z,79.56
2024-03-02T05:02:36.447Z,79.26
2024-03-02T05:05:04.959Z,79.52
2024-03-02T05:07:32.964Z,79.76
2024-03-02T05:10:01.321Z,79.82
2024-03-02T05:12:56.830Z,80.00
2024-03-02T05:15:26.360Z,80.83
2024-03-02T05:17:54.574Z,81.17
2024-03-02T05:20:22.612Z,81.00
2024-03-02T05:22:50.955Z,80.65
2024-03-02T05:25:19.028Z,80.16
2024-03-02T05:27:47.635Z,80.11
2024-03-02T05:30:16.218Z,80.19
2024-03-02T05:32:45.618Z,79.13
2024-03-02T05:35:14.120Z,78.86
2024-03-02T05:37:42.320Z,79.18
2024-03-02T05:40:12.420Z,79.43
2024-03-02T05:42:42.292Z,79.35
2024-03-02T05:45:10.704Z,79.34
2024-03-02T05:47:39.662Z,79.62
2024-03-02T05:50:10.077Z,79.67
2024-03-02T05:52:38.163Z,79.88
2024-03-02T05:55:07.159Z,79.71
2024-03-02T05:57:48.742Z,79.37
2024-03-02T06:00:18.561Z,79.23
2024-03-02T06:02:46.926Z,79.27
2024-03-02T06:05:18.124Z,78.77
2024-03-02T06:07:46.654Z,78.75
2024-03-02T06:10:15.639Z,79.06
2024-03-02T06:12:44.021Z,79.14
2024-03-02T06:15:12.348Z,79.41
2024-03-02T06:17:40.535Z,79.02
2024-03-02T06:20:09.904Z,78.91
2024-03-02T06:22:39.655Z,78.65
2024-03-02T06:25:08.327Z,77.91
2024-03-02T06:27:36.508Z,77.69
2024-03-02T06:30:05.466Z,78.54
2024-03-02T06:32:33.720Z,78.10
2024-03-02T06:35:02.003Z,78.91
2024-03-02T06:37:30.014Z,80.03
2024-03-02T06:39:59.550Z,80.30
2024-03-02T06:42:27.738Z,80.14
2024-03-02T06:44:55.889Z,79.49
2024-03-02T06:47:23.922Z,80.48
2024-03-02T06:49:52.008Z,79.57
2024-03-02T06:52:23.100Z,78.79
2024-03-02T06:54:52.758Z,78.37
2024-03-02T06:57:22.349Z,78.33
2024-03-02T06:59:52.533Z,78.67
2024-03-02T07:02:20.626Z,78.37
2024-03-02T07:04:48.720Z,77.90
2024-03-02T07:07:16.772Z,77.40
2024-03-02T07:09:44.806Z,76.91
2024-03-02T07:12:12.895Z,76.65
2024-03-02T07:15:12.443Z,76.00
2024-03-02T07:17:40.574Z,76.89
2024-03-02T07:20:09.342Z,77.18
2024-03-02T07:22:41.073Z,77.49
2024-03-02T07:26:54.610Z,78.23
2024-03-02T07:27:58.864Z,79.54
2024-03-02T07:30:29.000Z,79.48
2024-03-02T07:32:57.803Z,79.60
2024-03-02T07:35:28.693Z,77.90
2024-03-02T07:37:57.865Z,77.58
2024-03-02T07:40:26.062Z,77.16
2024-03-02T07:42:54.164Z,77.65
2024-03-02T07:45:22.339Z,77.72
2024-03-02T07:47:52.183Z,76.65
2024-03-02T07:50:20.730Z,74.85
2024-03-02T07:52:48.778Z,75.91
2024-03-02T07:55:17.870Z,75.31
2024-03-02T07:57:46.067Z,74.04
2024-03-02T08:00:16.491Z,74.50
2024-03-02T08:02:44.606Z,74.10
2024-03-02T08:05:14.127Z,72.99
2024-03-02T08:07:42.786Z,73.80
2024-03-02T08:10:11.456Z,72.94
2024-03-02T08:12:39.591Z,72.83
2024-03-02T08:15:08.715Z,73.82
2024-03-02T08:17:38.344Z,73.36
2024-03-02T08:20:09.394Z,71.85
2024-03-02T08:22:38.925Z,72.47
2024-03-02T08:25:07.590Z,73.12
2024-03-02T08:27:35.840Z,72.40
2024-03-02T08:30:07.877Z,73.82
2024-03-02T08:32:36.391Z,74.77
2024-03-02T08:35:04.912Z,75.23
2024-03-02T08:37:32.974Z,73.32
2024-03-02T08:40:02.572Z,73.15
2024-03-02T08:42:30.859Z,73.60
2024-03-02T08:44:58.966Z,73.41
2024-03-02T08:47:27.019Z,72.03
2024-03-02T08:49:56.793Z,73.05
2024-03-02T08:52:25.967Z,71.69
2024-03-02T08:54:54.004Z,72.31
2024-03-02T08:57:23.418Z,72.24
2024-03-02T08:59:51.572Z,72.07
2024-03-02T09:02:19.644Z,71.80
2024-03-02T09:04:47.748Z,72.55
2024-03-02T09:07:16.013Z,72.14
2024-03-02T09:09:44.064Z,71.51
2024-03-02T09:12:13.985Z,71.90
2024-03-02T09:14:43.856Z,72.61
2024-03-02T09:17:12.999Z,71.50
2024-03-02T09:19:41.775Z,70.52
2024-03-02T09:22:11.022Z,68.70
2024-03-02T09:24:39.140Z,67.97
2024-03-02T09:27:07.268Z,68.03
2024-03-02T09:29:35.267Z,66.83
2024-03-02T09:32:05.213Z,67.33
2024-03-02T09:34:33.317Z,67.52
2024-03-02T09:37:01.549Z,66.41
2024-03-02T09:39:29.685Z,66.90
2024-03-02T09:41:57.799Z,66.09
2024-03-02T09:44:26.751Z,65.38
2024-03-02T09:46:55.019Z,65.48
2024-03-02T09:49:25.029Z,64.77
2024-03-02T09:51:53.143Z,66.04
2024-03-02T09:54:23.389Z,66.53
2024-03-02T09:56:52.945Z,65.94
2024-03-02T09:59:21.899Z,65.86
2024-03-02T10:02:08.732Z,64.57
2024-03-02T10:04:38.249Z,63.85
2024-03-02T10:07:14.076Z,64.05
2024-03-02T10:09:42.685Z,64.23
2024-03-02T10:12:13.497Z,62.10
2024-03-02T10:14:42.065Z,63.62
2024-03-02T10:17:11.535Z,63.74
2024-03-02T10:19:41.915Z,64.42
2024-03-02T10:22:12.793Z,63.42
2024-03-02T10:24:42.225Z,63.52
2024-03-02T10:27:12.123Z,63.05
2024-03-02T10:29:42.103Z,63.43
2024-03-02T10:32:13.765Z,63.59
2024-03-02T10:34:44.400Z,63.73
2024-03-02T10:37:14.229Z,62.81
2024-03-02T10:39:42.834Z,63.85
2024-03-02T10:42:11.648Z,64.27
2024-03-02T10:44:39.819Z,64.10
2024-03-02T10:47:08.038Z,63.95
2024-03-02T10:49:36.098Z,63.54
2024-03-02T10:52:06.186Z,63.80
2024-03-02T10:54:38.214Z,62.82
2024-03-02T10:57:10.955Z,63.80
2024-03-02T10:59:45.877Z,64.21
2024-03-02T11:02:16.061Z,63.92
2024-03-02T11:04:44.678Z,64.73
2024-03-02T11:07:15.336Z,63.68
2024-03-02T11:09:47.234Z,64.25
2024-03-02T11:12:21.439Z,63.18
2024-03-02T11:14:49.542Z,63.77
2024-03-02T11:17:18.726Z,62.73
2024-03-02T11:19:48.402Z,63.78
2024-03-02T11:22:18.426Z,63.39
2024-03-02T11:24:51.118Z,62.18
2024-03-02T11:28:04.338Z,62.20
2024-03-02T11:30:56.676Z,61.62
2024-03-02T11:33:30.910Z,61.98
2024-03-02T11:36:00.044Z,62.16
2024-03-02T11:38:34.704Z,61.22
2024-03-02T11:41:04.364Z,61.21
2024-03-02T11:43:33.310Z,61.46
2024-03-02T11:46:02.471Z,61.57
2024-03-02T11:48:31.619Z,61.42
2024-03-02T11:51:02.382Z,60.97
2024-03-02T11:53:33.164Z,60.99
2024-03-02T11:56:04.320Z,59.98
2024-03-02T11:58:32.547Z,60.06
2024-03-02T12:01:00.670Z,59.76
2024-03-02T12:03:29.011Z,58.59
2024-03-02T12:05:58.078Z,57.94
2024-03-02T12:08:27.155Z,57.36
2024-03-02T12:11:00.279Z,57.45
2024-03-02T12:13:30.081Z,56.85
2024-03-02T12:15:58.850Z,56.54
2024-03-02T12:18:27.862Z,56.97
2024-03-02T12:20:58.802Z,56.97
2024-03-02T12:23:27.521Z,59.05
2024-03-02T12:25:56.138Z,57.40
2024-03-02T12:28:24.224Z,57.43
2024-03-02T12:30:54.018Z,56.53
2024-03-02T12:33:22.690Z,56.80
2024-03-02T12:35:52.015Z,57.51
2024-03-02T12:38:20.987Z,57.23
2024-03-02T12:40:50.408Z,57.13
2024-03-02T12:43:18.527Z,56.47
2024-03-02T12:45:46.978Z,56.90
2024-03-02T12:48:16.984Z,56.13
2024-03-02T12:50:45.525Z,56.44
2024-03-02T12:53:18.046Z,54.71
2024-03-02T12:55:46.757Z,55.03
2024-03-02T12:58:20.597Z,54.90
2024-03-02T13:00:48.775Z,54.77
2024-03-02T13:03:22.144Z,55.06
2024-03-02T13:05:54.477Z,54.87
2024-03-02T13:08:22.615Z,54.71
2024-03-02T13:10:51.181Z,55.12
2024-03-02T13:13:19.595Z,55.78
2024-03-02T13:15:47.695Z,56.13
2024-03-02T13:18:15.971Z,57.17
2024-03-02T13:20:45.450Z,56.26
2024-03-02T13:23:13.490Z,56.47
2024-03-02T13:25:41.513Z,56.09
2024-03-02T13:28:09.990Z,56.29
2024-03-02T13:30:38.411Z,56.72
2024-03-02T13:33:06.754Z,56.71
2024-03-02T13:35:34.816Z,57.27
2024-03-02T13:38:04.298Z,57.16
2024-03-02T13:40:36.552Z,57.30
2024-03-02T13:43:05.061Z,57.20
2024-03-02T13:45:33.136Z,58.04
2024-03-02T13:48:02.946Z,58.42
2024-03-02T13:50:31.673Z,58.42
2024-03-02T13:52:59.681Z,58.69
2024-03-02T13:55:29.085Z,59.12
2024-03-02T13:57:57.348Z,58.65
2024-03-02T14:00:25.495Z,59.46
2024-03-02T14:02:53.729Z,58.18
2024-03-02T14:05:21.868Z,59.41
2024-03-02T14:07:49.907Z,59.74
2024-03-02T14:10:19.289Z,59.54
2024-03-02T14:12:48.773Z,59.67
2024-03-02T14:15:19.319Z,58.93
2024-03-02T14:17:48.870Z,59.42
2024-03-02T14:20:22.858Z,59.71
2024-03-02T14:22:51.533Z,59.52
2024-03-02T14:25:20.368Z,58.79
2024-03-02T14:28:08.325Z,58.51
2024-03-02T14:30:38.493Z,57.99
2024-03-02T14:33:07.224Z,58.04
2024-03-02T14:35:35.623Z,57.98
2024-03-02T14:38:03.833Z,58.67
2024-03-02T14:40:31.957Z,58.27
2024-03-02T14:43:01.537Z,58.10
2024-03-02T14:45:29.912Z,57.70
2024-03-02T14:48:00.741Z,58.52
2024-03-02T14:50:29.016Z,58.57
2024-03-02T14:52:59.091Z,58.62
2024-03-02T14:55:27.181Z,58.46
2024-03-02T14:57:55.369Z,58.01
2024-03-02T15:00:24.841Z,58.67
2024-03-02T15:02:53.170Z,58.95
2024-03-02T15:05:21.275Z,58.84
2024-03-02T15:07:49.328Z,58.96
2024-03-02T15:10:18.136Z,59.16
2024-03-02T15:12:46.583Z,59.75
2024-03-02T15:15:14.605Z,59.36
2024-03-02T15:17:44.591Z,59.08
2024-03-02T15:20:13.194Z,58.81
2024-03-02T15:22:41.262Z,58.63
2024-03-02T15:25:10.185Z,58.96
2024-03-02T15:27:38.508Z,59.87
2024-03-02T15:30:08.185Z,59.50
2024-03-02T15:32:38.047Z,58.74
2024-03-02T15:35:08.294Z,58.08
2024-03-02T15:37:36.421Z,58.09
2024-03-02T15:40:07.774Z,58.42
2024-03-02T15:42:36.133Z,58.50
2024-03-02T15:45:05.794Z,59.00
2024-03-02T15:47:33.978Z,58.77
2024-03-02T15:50:02.062Z,58.37
2024-03-02T15:52:31.554Z,58.98
2024-03-02T15:54:59.633Z,58.55
2024-03-02T15:57:27.877Z,59.09
2024-03-02T15:59:55.931Z,58.91
2024-03-02T16:02:24.223Z,58.92
2024-03-02T16:04:52.825Z,59.69
2024-03-02T16:07:20.881Z,59.66
2024-03-02T16:09:50.356Z,59.12
2024-03-02T16:12:18.434Z,59.51
2024-03-02T16:14:46.525Z,59.63
2024-03-02T16:17:14.549Z,59.32
2024-03-02T16:19:42.930Z,60.23
2024-03-02T16:22:12.573Z,61.23
2024-03-02T16:24:40.864Z,61.85
2024-03-02T16:27:10.382Z,62.39
2024-03-02T16:29:38.580Z,63.20
2024-03-02T16:32:06.880Z,63.48
2024-03-02T16:34:34.981Z,64.37
2024-03-02T16:37:04.486Z,63.61
2024-03-02T16:39:32.663Z,63.73
2024-03-02T16:42:01.044Z,64.34
2024-03-02T16:44:30.450Z,64.63
2024-03-02T16:46:58.464Z,63.91
2024-03-02T16:49:26.556Z,63.94
2024-03-02T16:51:54.637Z,64.95
2024-03-02T16:54:23.144Z,65.80
2024-03-02T16:56:51.195Z,66.57
2024-03-02T16:59:19.226Z,65.77
2024-03-02T17:01:48.027Z,65.54
2024-03-02T17:04:16.129Z,63.88
2024-03-02T17:06:44.308Z,63.04
2024-03-02T17:09:12.324Z,63.46
2024-03-02T17:11:40.363Z,64.04
2024-03-02T17:14:08.547Z,64.25
2024-03-02T17:16:36.574Z,62.89
2024-03-02T17:19:06.135Z,62.89
2024-03-02T17:21:34.774Z,63.39
2024-03-02T17:24:03.862Z,64.71
2024-03-02T17:26:32.208Z,64.79
2024-03-02T17:29:00.231Z,66.20
2024-03-02T17:31:28.313Z,66.22
2024-03-02T17:33:56.528Z,65.53
2024-03-02T17:36:25.977Z,65.92
2024-03-02T17:38:54.099Z,64.88
2024-03-02T17:41:22.165Z,64.48
2024-03-02T17:43:50.197Z,64.74
2024-03-02T17:46:18.275Z,64.30
2024-03-02T17:48:46.386Z,64.95
2024-03-02T17:51:14.432Z,65.37
2024-03-02T17:53:44.178Z,65.29
2024-03-02T17:56:12.606Z,66.09
2024-03-02T17:58:40.776Z,66.79
2024-03-02T18:01:08.886Z,66.18
2024-03-02T18:03:36.957Z,66.55
2024-03-02T18:06:05.542Z,66.47
2024-03-02T18:08:36.073Z,67.28
2024-03-02T18:11:08.396Z,67.65
2024-03-02T18:13:36.797Z,68.30
2024-03-02T18:16:05.878Z,68.21
2024-03-02T18:18:34.143Z,68.77
2024-03-02T18:21:03.752Z,68.28
2024-03-02T18:23:31.885Z,67.35
2024-03-02T18:26:00.072Z,67.10
2024-03-02T18:28:29.466Z,67.20
2024-03-02T18:30:57.489Z,66.01
2024-03-02T18:33:25.576Z,67.09
2024-03-02T18:35:53.610Z,68.17
2024-03-02T18:38:21.675Z,68.53
2024-03-02T18:40:49.734Z,69.75
2024-03-02T18:43:17.853Z,68.69
2024-03-02T18:45:47.379Z,67.34
2024-03-02T18:48:15.999Z,68.14
2024-03-02T18:50:44.823Z,68.41
2024-03-02T18:53:13.986Z,68.13
2024-03-02T18:55:42.130Z,66.89
2024-03-02T18:58:10.202Z,67.96
2024-03-02T19:00:39.056Z,67.49
2024-03-02T19:03:11.110Z,66.45
2024-03-02T19:05:40.107Z,67.78
2024-03-02T19:08:09.197Z,67.30
2024-03-02T19:10:37.360Z,67.60
2024-03-02T19:13:07.133Z,68.51
2024-03-02T19:15:35.240Z,68.55
2024-03-02T19:18:03.425Z,69.02
2024-03-02T19:20:32.892Z,69.59
2024-03-02T19:23:01.453Z,69.50
2024-03-02T19:25:29.595Z,69.61
2024-03-02T19:27:57.669Z,70.27
2024-03-02T19:30:26.301Z,69.22
2024-03-02T19:32:54.402Z,69.33
2024-03-02T19:35:22.556Z,70.09
2024-03-02T19:37:52.527Z,70.82
2024-03-02T19:40:20.617Z,70.98
2024-03-02T19:42:48.682Z,70.23
2024-03-02T19:45:17.062Z,70.09
2024-03-02T19:47:45.057Z,69.72
2024-03-02T19:50:15.249Z,69.85
2024-03-02T19:52:43.341Z,70.65
2024-03-02T19:55:14.055Z,70.01
2024-03-02T19:57:45.888Z,69.53
2024-03-02T20:00:15.361Z,70.90
2024-03-02T20:02:44.085Z,71.15
2024-03-02T20:05:13.071Z,71.35
2024-03-02T20:07:42.714Z,71.49
2024-03-02T20:10:14.092Z,70.67
2024-03-02T20:12:42.884Z,71.20
2024-03-02T20:15:13.778Z,70.93
2024-03-02T20:17:41.983Z,70.52
2024-03-02T20:20:10.952Z,71.40
2024-03-02T20:22:38.989Z,69.66
2024-03-02T20:25:08.131Z,69.62
2024-03-02T20:27:37.747Z,70.07
2024-03-02T20:30:07.819Z,71.12
2024-03-02T20:32:35.900Z,71.10
2024-03-02T20:35:04.186Z,70.68
2024-03-02T20:37:32.273Z,71.37
2024-03-02T20:40:00.719Z,71.59
2024-03-02T20:42:28.857Z,71.83
2024-03-02T20:44:58.483Z,71.07
2024-03-02T20:47:26.517Z,70.95
2024-03-02T20:49:54.606Z,70.91
2024-03-02T20:52:22.761Z,71.23
2024-03-02T20:54:50.943Z,71.75
2024-03-02T20:57:20.213Z,71.53
2024-03-02T20:59:48.423Z,71.38
2024-03-02T21:02:18.096Z,71.59
2024-03-02T21:04:47.231Z,70.87
2024-03-02T21:07:15.558Z,70.38
2024-03-02T21:09:43.690Z,69.61
2024-03-02T21:12:11.734Z,69.43
2024-03-02T21:14:41.180Z,71.08
2024-03-02T21:17:09.409Z,71.11
2024-03-02T21:19:38.809Z,70.78
2024-03-02T21:22:07.312Z,71.86
2024-03-02T21:24:36.688Z,72.03
2024-03-02T21:27:05.143Z,71.54
2024-03-02T21:29:33.157Z,71.27
2024-03-02T21:32:01.248Z,72.63
2024-03-02T21:34:29.572Z,72.05
2024-03-02T21:36:59.882Z,72.02
2024-03-02T21:39:35.841Z,73.10
2024-03-02T21:42:08.163Z,72.49
2024-03-02T21:44:36.208Z,72.46
2024-03-02T21:47:06.844Z,72.35
2024-03-02T21:49:35.390Z,72.83
2024-03-02T21:52:05.354Z,71.83
2024-03-02T21:54:33.525Z,71.82
2024-03-02T21:57:03.571Z,72.19
2024-03-02T21:59:31.660Z,71.96
2024-03-02T22:01:59.758Z,72.96
2024-03-02T22:04:27.890Z,72.96
2024-03-02T22:06:55.983Z,72.35
2024-03-02T22:09:25.468Z,72.59
2024-03-02T22:11:53.803Z,72.99
2024-03-02T22:14:22.180Z,72.50
2024-03-02T22:16:50.447Z,72.08
2024-03-02T22:19:18.512Z,73.29
2024-03-02T22:21:47.575Z,72.62
2024-03-02T22:24:16.109Z,73.18
2024-03-02T22:26:45.578Z,72.84
2024-03-02T22:29:13.710Z,72.63
2024-03-02T22:31:41.765Z,72.73
2024-03-02T22:34:10.011Z,73.99
2024-03-02T22:36:38.120Z,73.38
2024-03-02T22:39:06.424Z,73.17
2024-03-02T22:41:34.517Z,73.47
2024-03-02T22:44:03.965Z,73.25
2024-03-02T22:46:31.975Z,72.60
2024-03-02T22:49:00.099Z,72.20
2024-03-02T22:51:28.933Z,73.36
2024-03-02T22:53:56.970Z,74.09
2024-03-02T22:56:25.006Z,73.04
2024-03-02T22:58:53.048Z,72.50
2024-03-02T23:01:23.803Z,72.96
2024-03-02T23:03:51.901Z,72.93
2024-03-02T23:06:20.732Z,72.99
2024-03-02T23:08:48.805Z,72.63
2024-03-02T23:11:16.931Z,72.98
2024-03-02T23:13:44.973Z,73.23
2024-03-02T23:16:13.097Z,73.58
2024-03-02T23:18:42.665Z,73.30
2024-03-02T23:21:10.799Z,73.38
2024-03-02T23:23:39.285Z,73.66
2024-03-02T23:26:07.815Z,73.88
2024-03-02T23:28:35.968Z,76.12
2024-03-02T23:31:05.194Z,75.81
2024-03-02T23:33:33.370Z,76.82
2024-03-02T23:36:03.638Z,75.79
2024-03-02T23:38:31.771Z,76.22
2024-03-02T23:41:09.370Z,75.53
2024-03-02T23:43:37.906Z,75.64
2024-03-02T23:46:07.719Z,76.01
2024-03-02T23:48:36.242Z,75.20
2024-03-02T23:51:06.019Z,75.01
2024-03-02T23:53:34.079Z,75.17
2024-03-02T23:56:12.447Z,76.11
2024-03-02T23:58:41.068Z,76.28
